Terminal Aerodrome Forecast
Issued by NWS

Home | Current Version | Previous Version | Text Only | Print | Product List | Glossary On
Versions: 1 2 3 4 5 6 7 8 9 10 11 12 13 14 15 16
017
FTUS42 KGSP 271140
TAFGMU
TAF
KGMU 271140Z 2712/2812 22003KT P6SM BKN050
     FM271300 22004KT P6SM SCT070
     FM271800 22006KT P6SM VCTS SCT040CB
     FM271900 22007KT P6SM VCTS BKN045CB
     FM272100 23007KT P6SM BKN045 PROB30 2721/2802 4SM -TSRA
      OVC025CB
     FM280200 23003KT P6SM BKN070=

USA.gov is the U.S. government's official web portal to all federal, state and local government web resources and services.